Time;durP1;ratioP1;P1;durP2;ratioP2;P2;SDS_P1;SDS_P2;PMS_P1;PMS_P2;Temp;Humidity;BMP_temperature;BMP_pressure;BME280_temperature;BME280_humidity;BME280_pressure;Samples;Min_cycle;Max_cycle;Signal;HPM_P1;HPM_P2
2023/10/21 00:00:20;;;;;;;1.87;0.93;;;12.00;99.90;;;;;;5108127;27;20668;-63
2023/10/21 00:02:45;;;;;;;2.13;1.00;;;12.00;99.90;;;;;;5108856;27;20183;-63
2023/10/21 00:05:11;;;;;;;1.70;0.60;;;12.00;99.90;;;;;;5109103;27;20180;-63
2023/10/21 00:07:37;;;;;;;13.57;0.83;;;12.20;99.90;;;;;;5108574;27;20728;-63
2023/10/21 00:10:06;;;;;;;2.13;0.80;;;12.30;99.90;;;;;;5110064;27;20190;-64
2023/10/21 00:12:34;;;;;;;2.30;1.07;;;12.10;99.90;;;;;;5109444;27;20438;-63
2023/10/21 00:15:00;;;;;;;1.70;0.93;;;12.10;99.90;;;;;;5100168;27;20927;-63
2023/10/21 00:17:27;;;;;;;1.57;0.70;;;12.10;99.90;;;;;;5107696;27;20445;-64
2023/10/21 00:19:52;;;;;;;1.70;0.90;;;12.10;99.90;;;;;;5109806;27;20210;-62
2023/10/21 00:22:18;;;;;;;1.90;0.73;;;12.10;99.90;;;;;;5107425;27;20429;-63
2023/10/21 00:24:43;;;;;;;1.67;0.60;;;12.10;99.90;;;;;;5107068;27;20293;-63
2023/10/21 00:27:09;;;;;;;2.97;0.90;;;12.10;99.90;;;;;;5107805;27;20186;-64
2023/10/21 00:29:35;;;;;;;2.17;0.73;;;12.10;99.90;;;;;;5106367;27;20630;-64
2023/10/21 00:32:04;;;;;;;1.53;0.70;;;12.10;99.90;;;;;;5106657;27;20177;-63
2023/10/21 00:34:30;;;;;;;1.50;0.70;;;12.10;99.90;;;;;;5108157;27;20176;-64
2023/10/21 00:36:56;;;;;;;1.50;0.60;;;12.10;99.90;;;;;;5107230;27;20452;-63
2023/10/21 00:39:21;;;;;;;1.40;0.70;;;12.10;99.90;;;;;;5103754;27;20997;-64
2023/10/21 00:41:47;;;;;;;3.20;1.20;;;12.10;99.90;;;;;;5104654;27;20473;-64
2023/10/21 00:44:13;;;;;;;1.47;0.90;;;12.10;99.90;;;;;;5106030;27;20190;-63
2023/10/21 00:46:40;;;;;;;2.17;1.03;;;12.00;99.90;;;;;;5109978;27;20179;-64
2023/10/21 00:49:06;;;;;;;2.03;0.93;;;12.00;99.90;;;;;;5105939;27;20549;-64
2023/10/21 00:51:33;;;;;;;2.43;1.20;;;12.00;99.90;;;;;;5106158;27;20430;-65
2023/10/21 00:54:01;;;;;;;2.87;1.10;;;12.00;99.90;;;;;;5104753;27;20179;-63
2023/10/21 00:56:27;;;;;;;2.23;0.57;;;12.10;99.90;;;;;;5105839;27;20445;-64
2023/10/21 00:58:53;;;;;;;1.47;0.60;;;12.00;99.90;;;;;;5106835;27;20429;-64
2023/10/21 01:01:18;;;;;;;1.20;0.50;;;11.90;99.90;;;;;;5105104;27;20207;-64
2023/10/21 01:03:45;;;;;;;1.33;0.57;;;12.00;99.90;;;;;;5106236;27;20180;-64
2023/10/21 01:06:10;;;;;;;1.17;0.53;;;11.80;99.90;;;;;;5107166;27;20172;-63
2023/10/21 01:08:43;;;;;;;1.30;0.50;;;11.90;99.90;;;;;;5108548;27;20828;-63
2023/10/21 01:11:12;;;;;;;1.50;0.67;;;12.00;99.90;;;;;;5099525;27;20193;-63
2023/10/21 01:13:38;;;;;;;2.43;0.50;;;12.00;99.90;;;;;;5104973;27;20444;-63
2023/10/21 01:16:04;;;;;;;1.13;0.50;;;12.00;99.90;;;;;;5106754;27;20466;-64
2023/10/21 01:18:33;;;;;;;1.27;0.60;;;11.90;99.90;;;;;;5105074;27;20430;-63
2023/10/21 01:21:03;;;;;;;4.00;1.03;;;11.90;99.90;;;;;;5107833;27;20736;-64
2023/10/21 01:23:30;;;;;;;1.10;0.40;;;11.90;99.90;;;;;;5106892;27;20432;-63
2023/10/21 01:25:55;;;;;;;1.50;0.60;;;11.90;99.90;;;;;;5107107;27;20428;-64
2023/10/21 01:28:21;;;;;;;1.10;0.50;;;11.90;99.90;;;;;;5105965;27;20474;-64
2023/10/21 01:30:47;;;;;;;1.53;0.60;;;12.00;99.90;;;;;;5105101;27;20187;-63
2023/10/21 01:33:13;;;;;;;1.10;0.50;;;12.00;99.90;;;;;;5107799;27;20871;-64
2023/10/21 01:35:38;;;;;;;1.10;0.40;;;12.00;99.90;;;;;;5108474;27;20436;-63
2023/10/21 01:38:04;;;;;;;1.20;0.50;;;12.00;99.90;;;;;;5096315;27;20235;-63
2023/10/21 01:40:30;;;;;;;1.40;0.60;;;12.10;99.90;;;;;;5104554;27;20203;-63
2023/10/21 01:42:55;;;;;;;1.37;0.60;;;12.10;99.90;;;;;;5105964;27;20176;-64
2023/10/21 01:45:21;;;;;;;1.10;0.40;;;12.20;99.90;;;;;;5107642;27;20179;-63
2023/10/21 01:47:47;;;;;;;1.20;0.50;;;12.30;99.90;;;;;;5104764;27;20177;-63
2023/10/21 01:50:12;;;;;;;1.10;0.40;;;12.30;99.90;;;;;;5107539;27;20667;-64
2023/10/21 01:52:38;;;;;;;1.10;0.40;;;12.30;99.90;;;;;;5104830;28;20184;-63
2023/10/21 01:55:05;;;;;;;2.20;0.60;;;12.40;99.90;;;;;;5102683;27;20183;-63
2023/10/21 01:57:32;;;;;;;1.10;0.40;;;12.40;99.90;;;;;;5106096;28;20430;-64
2023/10/21 01:59:59;;;;;;;1.20;0.40;;;12.50;99.90;;;;;;5107090;28;20456;-63
2023/10/21 02:02:25;;;;;;;1.20;0.50;;;12.40;99.90;;;;;;5103939;28;20425;-63
2023/10/21 02:04:51;;;;;;;1.10;0.40;;;12.40;99.90;;;;;;5107755;28;20429;-63
2023/10/21 02:07:17;;;;;;;1.10;0.40;;;12.50;99.90;;;;;;5098977;28;20479;-63
2023/10/21 02:09:42;;;;;;;1.20;0.50;;;12.50;99.90;;;;;;5105228;28;20183;-63
2023/10/21 02:12:08;;;;;;;1.20;0.50;;;12.50;99.90;;;;;;5106963;28;20694;-63
2023/10/21 02:14:34;;;;;;;1.10;0.50;;;12.50;99.90;;;;;;5106247;28;20176;-63
2023/10/21 02:17:00;;;;;;;1.40;0.50;;;12.50;99.90;;;;;;5108020;28;20778;-63
2023/10/21 02:19:25;;;;;;;1.10;0.40;;;12.40;99.90;;;;;;5104740;28;20190;-63
2023/10/21 02:21:51;;;;;;;1.30;0.50;;;12.40;99.90;;;;;;5106894;28;20208;-63
2023/10/21 02:24:16;;;;;;;1.30;0.50;;;12.40;99.90;;;;;;5108690;28;20282;-63
2023/10/21 02:26:42;;;;;;;3.33;0.70;;;12.50;99.90;;;;;;5109434;28;20201;-63
2023/10/21 02:29:08;;;;;;;1.10;0.40;;;12.50;99.90;;;;;;5104267;28;20183;-64
2023/10/21 02:31:34;;;;;;;4.83;1.60;;;12.60;99.90;;;;;;5106392;28;20628;-64
2023/10/21 02:34:00;;;;;;;1.60;0.60;;;12.60;99.90;;;;;;5095471;28;20463;-63
2023/10/21 02:36:26;;;;;;;10.43;2.90;;;12.60;99.90;;;;;;5105926;28;20187;-63
2023/10/21 02:38:52;;;;;;;4.00;1.23;;;12.70;99.90;;;;;;5104961;28;20235;-64
2023/10/21 02:41:18;;;;;;;1.40;0.60;;;12.60;99.90;;;;;;5105852;28;20452;-64
2023/10/21 02:43:43;;;;;;;3.17;1.40;;;12.60;99.90;;;;;;5104820;28;20180;-64
2023/10/21 02:46:10;;;;;;;1.80;0.80;;;12.60;99.90;;;;;;5107311;28;20214;-63
2023/10/21 02:48:36;;;;;;;1.20;0.50;;;12.50;99.90;;;;;;5105093;28;20195;-65
2023/10/21 02:51:15;;;;;;;2.37;0.97;;;12.50;99.90;;;;;;5107451;28;20866;-63
2023/10/21 02:53:41;;;;;;;1.40;0.60;;;12.50;99.90;;;;;;5105726;27;20193;-63
2023/10/21 02:56:07;;;;;;;1.73;0.60;;;12.50;99.90;;;;;;5110825;27;21863;-63
2023/10/21 02:58:36;;;;;;;1.30;0.60;;;12.40;99.90;;;;;;5110135;27;20429;-64
2023/10/21 03:01:14;;;;;;;1.20;0.50;;;12.40;99.90;;;;;;5102194;27;20502;-63
2023/10/21 03:03:40;;;;;;;2.40;0.90;;;12.40;99.90;;;;;;5101190;27;20424;-64
2023/10/21 03:06:06;;;;;;;9.10;1.27;;;12.40;99.90;;;;;;5111971;27;20796;-63
2023/10/21 03:08:31;;;;;;;1.83;0.73;;;12.40;99.90;;;;;;5107914;27;20424;-63
2023/10/21 03:10:57;;;;;;;1.10;0.50;;;12.40;99.90;;;;;;5109981;27;20184;-63
2023/10/21 03:13:23;;;;;;;3.07;0.97;;;12.40;99.90;;;;;;5110454;27;20196;-63
2023/10/21 03:15:49;;;;;;;1.43;0.60;;;12.30;99.90;;;;;;5110484;27;20559;-63
2023/10/21 03:18:15;;;;;;;1.20;0.50;;;12.30;99.90;;;;;;5108231;27;20192;-63
2023/10/21 03:20:40;;;;;;;1.20;0.50;;;12.30;99.90;;;;;;5110460;27;20226;-63
2023/10/21 03:23:06;;;;;;;1.10;0.50;;;12.20;99.90;;;;;;5108240;27;20274;-63
2023/10/21 03:25:33;;;;;;;1.10;0.50;;;12.20;99.90;;;;;;5109542;27;21490;-63
2023/10/21 03:27:59;;;;;;;1.10;0.40;;;12.20;99.90;;;;;;5100183;27;20181;-63
2023/10/21 03:30:24;;;;;;;2.57;0.80;;;12.20;99.90;;;;;;5107982;27;20437;-63
2023/10/21 03:32:50;;;;;;;1.10;0.43;;;12.30;99.90;;;;;;5107920;27;20944;-64
2023/10/21 03:35:16;;;;;;;1.50;0.60;;;12.20;99.90;;;;;;5107130;27;20661;-63
2023/10/21 03:37:41;;;;;;;1.50;0.53;;;12.20;99.90;;;;;;5110124;27;20218;-63
2023/10/21 03:40:10;;;;;;;1.10;0.40;;;12.10;99.90;;;;;;5109084;27;20232;-64
2023/10/21 03:42:37;;;;;;;5.43;0.70;;;12.10;99.90;;;;;;5106782;27;20184;-63
2023/10/21 03:45:04;;;;;;;1.47;0.50;;;12.10;99.90;;;;;;5108990;27;20423;-63
2023/10/21 03:47:30;;;;;;;2.60;1.13;;;12.20;99.90;;;;;;5107581;27;20548;-63
2023/10/21 03:49:57;;;;;;;3.20;1.03;;;12.10;99.90;;;;;;5107962;27;20434;-63
2023/10/21 03:52:22;;;;;;;5.40;1.47;;;12.00;99.90;;;;;;5107694;27;20187;-63
2023/10/21 03:54:48;;;;;;;1.20;0.60;;;11.90;99.90;;;;;;5102615;27;20431;-64
2023/10/21 03:57:13;;;;;;;1.10;0.50;;;12.00;99.90;;;;;;5108543;27;20266;-63
2023/10/21 03:59:39;;;;;;;2.80;0.70;;;11.90;99.90;;;;;;5109292;27;20186;-63
2023/10/21 04:02:05;;;;;;;1.10;0.40;;;12.00;99.90;;;;;;5107876;27;20225;-63
2023/10/21 04:04:31;;;;;;;1.40;0.60;;;12.00;99.90;;;;;;5108374;27;20179;-63
2023/10/21 04:06:57;;;;;;;1.17;0.47;;;11.80;99.90;;;;;;5109879;27;20422;-63
2023/10/21 04:09:22;;;;;;;2.10;0.73;;;11.80;99.90;;;;;;5108408;27;20175;-63
2023/10/21 04:11:48;;;;;;;4.90;0.70;;;11.90;99.90;;;;;;5106131;27;20180;-63
2023/10/21 04:14:14;;;;;;;1.10;0.50;;;11.90;99.90;;;;;;5106793;27;20189;-63
2023/10/21 04:16:44;;;;;;;2.53;0.90;;;11.90;99.90;;;;;;5111304;27;20184;-63
2023/10/21 04:19:12;;;;;;;1.33;0.60;;;11.80;99.90;;;;;;5107267;27;20875;-63
2023/10/21 04:21:38;;;;;;;4.60;1.57;;;11.80;99.90;;;;;;5106284;27;20477;-63
2023/10/21 04:24:04;;;;;;;4.70;0.97;;;11.80;99.90;;;;;;5103201;27;20438;-62
2023/10/21 04:26:30;;;;;;;1.43;0.60;;;11.90;99.90;;;;;;5108219;27;20314;-63
2023/10/21 04:28:56;;;;;;;1.87;0.77;;;11.90;99.90;;;;;;5108648;27;21542;-63
2023/10/21 04:31:21;;;;;;;1.37;0.70;;;11.90;99.90;;;;;;5107992;27;20433;-62
2023/10/21 04:33:47;;;;;;;1.83;0.60;;;12.00;99.90;;;;;;5106681;27;20254;-63
2023/10/21 04:36:18;;;;;;;2.27;1.03;;;12.00;99.90;;;;;;5110044;27;20263;-63
2023/10/21 04:38:44;;;;;;;1.33;0.70;;;12.00;99.90;;;;;;5109361;27;20234;-62
2023/10/21 04:41:10;;;;;;;6.00;0.97;;;12.00;99.90;;;;;;5107899;27;20468;-63
2023/10/21 04:43:36;;;;;;;7.60;1.20;;;12.10;99.90;;;;;;5108096;27;20452;-63
2023/10/21 04:46:02;;;;;;;3.30;1.20;;;12.10;99.90;;;;;;5108960;27;20900;-63
2023/10/21 04:48:27;;;;;;;1.53;0.60;;;12.10;99.90;;;;;;5097237;27;20596;-63
2023/10/21 04:50:53;;;;;;;1.20;0.50;;;12.20;99.90;;;;;;5106388;27;20639;-63
2023/10/21 04:53:18;;;;;;;1.17;0.47;;;12.20;99.90;;;;;;5106967;27;20180;-63
2023/10/21 04:55:44;;;;;;;3.90;0.50;;;12.20;99.90;;;;;;5110524;27;20719;-62
2023/10/21 04:58:09;;;;;;;1.10;0.40;;;12.20;99.90;;;;;;5106835;27;20184;-62
2023/10/21 05:00:35;;;;;;;1.43;0.50;;;12.30;99.90;;;;;;5107148;27;20207;-63
2023/10/21 05:03:01;;;;;;;1.73;0.70;;;12.40;99.90;;;;;;5106079;27;20685;-63
2023/10/21 05:05:26;;;;;;;2.70;0.73;;;12.30;99.90;;;;;;5108658;27;20220;-63
2023/10/21 05:07:52;;;;;;;1.67;0.70;;;12.30;99.90;;;;;;5107157;27;20186;-62
2023/10/21 05:10:18;;;;;;;1.10;0.40;;;12.30;99.90;;;;;;5106129;27;20183;-63
2023/10/21 05:12:44;;;;;;;1.10;0.40;;;12.40;99.90;;;;;;5106807;27;20216;-62
2023/10/21 05:15:10;;;;;;;1.20;0.50;;;12.30;99.90;;;;;;5099130;27;20907;-63
2023/10/21 05:17:35;;;;;;;1.60;0.70;;;12.30;99.90;;;;;;5105323;27;21201;-62
2023/10/21 05:20:02;;;;;;;3.43;0.60;;;12.30;99.90;;;;;;5105775;27;20462;-62
2023/10/21 05:22:28;;;;;;;4.03;0.57;;;12.20;99.90;;;;;;5109025;27;21445;-64
2023/10/21 05:24:55;;;;;;;1.10;0.40;;;12.20;99.90;;;;;;5106025;27;20429;-62
2023/10/21 05:27:21;;;;;;;2.00;0.70;;;12.10;99.90;;;;;;5106892;27;21366;-62
2023/10/21 05:29:46;;;;;;;1.57;0.50;;;12.10;99.90;;;;;;5109403;27;20939;-62
2023/10/21 05:32:14;;;;;;;1.40;0.60;;;12.10;99.90;;;;;;5105289;27;20180;-63
2023/10/21 05:34:40;;;;;;;1.10;0.50;;;12.10;99.90;;;;;;5107267;27;20176;-63
2023/10/21 05:37:06;;;;;;;1.30;0.60;;;12.20;99.90;;;;;;5106878;27;20462;-63
2023/10/21 05:39:31;;;;;;;1.27;0.57;;;12.10;99.90;;;;;;5104228;27;20345;-63
2023/10/21 05:41:57;;;;;;;1.40;0.60;;;12.10;99.90;;;;;;5103192;27;20222;-62
2023/10/21 05:44:22;;;;;;;1.10;0.50;;;12.10;99.90;;;;;;5106780;27;20184;-62
2023/10/21 05:46:48;;;;;;;1.60;0.60;;;12.10;99.90;;;;;;5107518;27;20207;-63
2023/10/21 05:49:14;;;;;;;1.67;0.60;;;12.10;99.90;;;;;;5105840;27;20601;-62
2023/10/21 05:51:39;;;;;;;5.83;0.60;;;12.10;99.90;;;;;;5106490;28;20186;-62
2023/10/21 05:54:05;;;;;;;1.10;0.50;;;12.10;99.90;;;;;;5105731;27;20772;-63
2023/10/21 05:56:31;;;;;;;1.83;0.60;;;12.00;99.90;;;;;;5106065;27;20206;-63
2023/10/21 05:58:56;;;;;;;1.30;0.50;;;12.20;99.90;;;;;;5104562;28;20263;-62
2023/10/21 06:01:22;;;;;;;1.50;0.53;;;12.10;99.90;;;;;;5106086;28;20203;-62
2023/10/21 06:03:48;;;;;;;1.60;0.50;;;12.10;99.90;;;;;;5105652;28;20183;-63
2023/10/21 06:06:13;;;;;;;1.10;0.50;;;12.10;99.90;;;;;;5108080;28;20184;-63
2023/10/21 06:08:39;;;;;;;1.10;0.43;;;12.20;99.90;;;;;;5106371;28;20184;-63
2023/10/21 06:11:05;;;;;;;2.07;0.60;;;12.20;99.90;;;;;;5100822;28;20644;-63
2023/10/21 06:13:30;;;;;;;1.37;0.60;;;12.20;99.90;;;;;;5107428;28;20206;-64
2023/10/21 06:15:56;;;;;;;2.40;1.00;;;12.10;99.90;;;;;;5106305;28;20365;-63
2023/10/21 06:18:21;;;;;;;1.10;0.40;;;12.10;99.90;;;;;;5105434;28;20698;-63
2023/10/21 06:20:51;;;;;;;1.23;0.50;;;12.10;99.90;;;;;;5108838;28;20241;-63
2023/10/21 06:23:17;;;;;;;1.10;0.40;;;12.00;99.90;;;;;;5104933;28;20232;-63
2023/10/21 06:25:43;;;;;;;1.20;0.50;;;12.20;99.90;;;;;;5104577;28;20484;-63
2023/10/21 06:28:09;;;;;;;1.20;0.50;;;12.10;99.90;;;;;;5105189;27;20215;-63
2023/10/21 06:30:36;;;;;;;1.20;0.60;;;12.10;99.90;;;;;;5111022;27;20557;-63
2023/10/21 06:33:03;;;;;;;1.30;0.60;;;12.00;99.90;;;;;;5110490;27;20517;-63
2023/10/21 06:35:28;;;;;;;2.17;0.80;;;12.00;99.90;;;;;;5111463;27;20430;-63
2023/10/21 06:37:54;;;;;;;1.70;0.70;;;12.00;99.90;;;;;;5101647;27;20473;-63
2023/10/21 06:40:20;;;;;;;1.60;0.80;;;12.00;99.90;;;;;;5108399;27;20204;-63
2023/10/21 06:42:46;;;;;;;1.10;0.50;;;11.90;99.90;;;;;;5109351;27;20267;-63
2023/10/21 06:45:11;;;;;;;1.90;0.70;;;12.00;99.90;;;;;;5110135;27;20228;-63
2023/10/21 06:47:37;;;;;;;2.40;0.53;;;12.00;99.90;;;;;;5108367;27;20286;-63
2023/10/21 06:50:04;;;;;;;1.53;0.60;;;12.00;99.90;;;;;;5109433;27;20830;-63
2023/10/21 06:52:30;;;;;;;1.30;0.60;;;12.10;99.90;;;;;;5111644;27;20176;-63
2023/10/21 06:54:56;;;;;;;1.10;0.50;;;12.10;99.90;;;;;;5109160;27;20546;-63
2023/10/21 06:57:21;;;;;;;3.20;0.53;;;12.20;99.90;;;;;;5110701;27;20418;-62
2023/10/21 06:59:47;;;;;;;1.30;0.53;;;12.30;99.90;;;;;;5111421;27;20184;-63
2023/10/21 07:02:13;;;;;;;1.17;0.60;;;12.30;99.90;;;;;;5108476;27;20966;-63
2023/10/21 07:04:39;;;;;;;1.20;0.50;;;12.30;99.90;;;;;;5102104;27;20479;-64
2023/10/21 07:07:04;;;;;;;2.63;0.83;;;12.30;99.90;;;;;;5110009;27;20176;-63
2023/10/21 07:09:30;;;;;;;1.47;0.57;;;12.30;99.90;;;;;;5110175;27;20183;-64
2023/10/21 07:11:56;;;;;;;1.70;0.60;;;12.30;99.90;;;;;;5110967;27;20203;-64
2023/10/21 07:14:21;;;;;;;2.37;0.60;;;12.30;99.90;;;;;;5108313;27;20207;-63
2023/10/21 07:16:47;;;;;;;1.50;0.60;;;12.30;99.90;;;;;;5111515;27;20300;-63
2023/10/21 07:19:13;;;;;;;1.30;0.53;;;12.50;99.90;;;;;;5108127;27;20179;-63
2023/10/21 07:21:38;;;;;;;1.20;0.50;;;12.40;99.90;;;;;;5110751;27;21616;-63
2023/10/21 07:24:05;;;;;;;1.70;0.70;;;12.60;99.90;;;;;;5110020;27;20175;-63
2023/10/21 07:26:30;;;;;;;1.40;0.60;;;12.80;99.90;;;;;;5110271;27;20213;-62
2023/10/21 07:28:56;;;;;;;1.50;0.57;;;13.00;99.90;;;;;;5107297;27;20426;-63
2023/10/21 07:31:22;;;;;;;3.20;1.00;;;13.10;99.90;;;;;;5101785;27;20187;-63
2023/10/21 07:33:51;;;;;;;1.20;0.47;;;13.20;99.90;;;;;;5108093;27;20259;-63
2023/10/21 07:36:17;;;;;;;1.70;0.50;;;13.40;99.90;;;;;;5109583;27;20510;-63
2023/10/21 07:38:42;;;;;;;7.07;0.80;;;13.60;99.90;;;;;;5108557;27;20518;-63
2023/10/21 07:41:12;;;;;;;1.30;0.70;;;13.90;99.90;;;;;;5107310;27;20215;-63
2023/10/21 07:43:38;;;;;;;1.73;0.70;;;14.20;99.90;;;;;;5108392;27;20858;-63
2023/10/21 07:46:03;;;;;;;1.70;0.60;;;14.20;99.90;;;;;;5106626;27;20472;-62
2023/10/21 07:48:29;;;;;;;2.37;0.83;;;14.20;99.90;;;;;;5107987;27;20172;-64
2023/10/21 07:50:55;;;;;;;1.20;0.50;;;14.20;99.90;;;;;;5109044;27;20192;-64
2023/10/21 07:53:21;;;;;;;6.03;2.30;;;14.30;99.90;;;;;;5108946;27;21419;-64
2023/10/21 07:55:50;;;;;;;10.97;3.00;;;14.50;99.90;;;;;;5108785;27;20186;-63
2023/10/21 07:58:16;;;;;;;3.57;1.27;;;14.60;99.90;;;;;;5100058;27;20713;-64
2023/10/21 08:00:42;;;;;;;6.93;1.70;;;14.50;99.90;;;;;;5107783;27;20479;-64
2023/10/21 08:03:08;;;;;;;4.23;0.90;;;14.40;99.90;;;;;;5107006;27;20439;-63
2023/10/21 08:05:33;;;;;;;7.80;1.53;;;14.40;99.90;;;;;;5110065;27;21317;-64
2023/10/21 08:07:59;;;;;;;3.87;2.00;;;14.70;99.90;;;;;;5109025;27;20183;-63
2023/10/21 08:10:25;;;;;;;5.63;1.53;;;14.80;99.90;;;;;;5109440;27;20273;-63
2023/10/21 08:12:50;;;;;;;3.97;1.73;;;15.00;99.90;;;;;;5108227;27;20195;-63
2023/10/21 08:15:16;;;;;;;2.40;0.73;;;15.20;99.90;;;;;;5111736;27;20263;-64
2023/10/21 08:17:42;;;;;;;2.40;1.27;;;15.40;99.90;;;;;;5107338;27;20219;-63
2023/10/21 08:20:08;;;;;;;4.53;0.93;;;15.70;99.90;;;;;;5107255;27;20223;-62
2023/10/21 08:22:34;;;;;;;1.30;0.50;;;15.80;99.90;;;;;;5109676;27;20635;-63
2023/10/21 08:25:00;;;;;;;1.33;0.60;;;15.80;99.90;;;;;;5100091;27;20428;-63
2023/10/21 08:27:26;;;;;;;1.50;0.60;;;15.80;99.90;;;;;;5108598;27;20222;-63
2023/10/21 08:29:53;;;;;;;2.23;0.70;;;16.10;99.90;;;;;;5108721;27;20247;-63
2023/10/21 08:32:18;;;;;;;1.57;0.63;;;16.30;99.90;;;;;;5107404;27;20513;-63
2023/10/21 08:34:44;;;;;;;1.40;0.50;;;16.50;99.90;;;;;;5104840;27;20876;-63
2023/10/21 08:37:10;;;;;;;1.47;0.70;;;16.70;99.90;;;;;;5110352;27;20241;-63
2023/10/21 08:39:36;;;;;;;4.37;0.70;;;17.20;99.50;;;;;;5107913;27;20895;-63
2023/10/21 08:42:05;;;;;;;1.33;0.60;;;16.70;99.90;;;;;;5107491;27;20219;-63
2023/10/21 08:44:31;;;;;;;1.77;0.90;;;17.20;99.90;;;;;;5106852;27;20261;-63
2023/10/21 08:47:02;;;;;;;1.60;0.63;;;17.00;99.90;;;;;;5110574;27;20418;-63
2023/10/21 08:49:30;;;;;;;1.30;0.57;;;16.40;99.60;;;;;;5106891;27;20433;-63
2023/10/21 08:51:58;;;;;;;1.77;0.63;;;16.50;99.90;;;;;;5103106;27;20431;-63
2023/10/21 08:54:24;;;;;;;1.30;0.60;;;16.30;99.90;;;;;;5104300;27;20440;-63
2023/10/21 08:56:49;;;;;;;2.80;1.63;;;15.80;99.90;;;;;;5106583;27;20441;-63
2023/10/21 08:59:15;;;;;;;3.40;0.50;;;15.60;99.90;;;;;;5106590;27;20660;-62
2023/10/21 09:01:41;;;;;;;3.10;0.60;;;15.20;99.90;;;;;;5108589;27;20207;-63
2023/10/21 09:04:07;;;;;;;3.27;0.70;;;14.90;99.90;;;;;;5108085;27;20467;-63
2023/10/21 09:06:33;;;;;;;3.10;0.70;;;14.70;99.90;;;;;;5105857;27;20191;-63
2023/10/21 09:08:58;;;;;;;1.20;0.50;;;14.50;99.90;;;;;;5104850;27;20883;-62
2023/10/21 09:11:26;;;;;;;1.20;0.40;;;14.50;99.90;;;;;;5109446;27;20675;-62
2023/10/21 09:13:54;;;;;;;1.70;0.60;;;14.60;99.90;;;;;;5104468;27;20196;-62
2023/10/21 09:16:21;;;;;;;2.03;0.63;;;14.50;99.90;;;;;;5107114;27;20437;-62
2023/10/21 09:19:23;;;;;;;2.33;0.60;;;14.60;99.90;;;;;;5104423;27;20449;-63
2023/10/21 09:21:49;;;;;;;1.30;0.57;;;14.60;99.90;;;;;;5088743;27;21598;-62
2023/10/21 09:24:23;;;;;;;1.83;0.67;;;14.80;99.90;;;;;;5104573;27;20507;-63
2023/10/21 09:26:49;;;;;;;2.57;0.60;;;14.90;99.90;;;;;;5106346;27;20701;-63
2023/10/21 09:29:22;;;;;;;6.93;0.87;;;14.90;99.90;;;;;;5106570;27;20429;-63
2023/10/21 09:31:55;;;;;;;1.40;0.50;;;14.90;99.90;;;;;;5109779;27;20448;-62
2023/10/21 09:34:29;;;;;;;3.87;0.90;;;14.90;99.90;;;;;;5104926;27;20458;-62
2023/10/21 09:36:57;;;;;;;5.23;0.60;;;14.80;99.90;;;;;;5104827;27;20419;-62
2023/10/21 09:39:25;;;;;;;1.73;0.50;;;14.90;99.90;;;;;;5107445;27;20466;-62
2023/10/21 09:41:51;;;;;;;1.63;0.83;;;15.10;99.90;;;;;;5110006;27;20473;-62
2023/10/21 09:44:17;;;;;;;1.20;0.40;;;15.10;99.90;;;;;;5105501;27;20480;-62
2023/10/21 09:46:47;;;;;;;2.60;0.53;;;15.10;99.90;;;;;;5106118;27;20183;-62
2023/10/21 09:49:14;;;;;;;1.90;0.70;;;15.10;99.90;;;;;;5095298;27;20884;-62
2023/10/21 09:51:56;;;;;;;1.40;0.50;;;15.00;99.90;;;;;;5109833;27;20433;-62
2023/10/21 09:54:31;;;;;;;2.60;0.60;;;15.00;99.90;;;;;;5106647;27;20432;-62
2023/10/21 09:56:58;;;;;;;1.20;0.50;;;15.00;99.90;;;;;;5105202;27;20969;-65
2023/10/21 09:59:24;;;;;;;4.23;0.50;;;15.10;99.90;;;;;;5106118;27;20429;-65
2023/10/21 10:01:56;;;;;;;1.40;0.60;;;15.20;99.90;;;;;;5104258;28;20522;-66
2023/10/21 10:04:23;;;;;;;1.97;0.73;;;15.40;99.90;;;;;;5105825;27;20433;-66
2023/10/21 10:06:58;;;;;;;4.13;0.83;;;15.50;99.90;;;;;;5105941;28;20425;-66
2023/10/21 10:09:28;;;;;;;13.03;0.87;;;15.40;99.90;;;;;;5105589;28;21278;-66
2023/10/21 10:11:59;;;;;;;3.00;0.90;;;15.50;99.90;;;;;;5106178;28;20410;-65
2023/10/21 10:14:28;;;;;;;1.20;0.50;;;15.50;99.90;;;;;;5106017;28;20432;-63
2023/10/21 10:16:54;;;;;;;1.53;0.70;;;15.40;99.90;;;;;;5098551;28;20442;-64
2023/10/21 10:19:40;;;;;;;1.50;0.50;;;15.40;99.90;;;;;;5104337;28;20434;-64
2023/10/21 10:22:30;;;;;;;1.63;0.50;;;15.50;99.90;;;;;;5106820;28;20494;-64
2023/10/21 10:25:10;;;;;;;2.27;0.63;;;15.60;99.50;;;;;;5091982;28;20451;-65
2023/10/21 10:27:40;;;;;;;3.03;0.70;;;15.70;99.10;;;;;;5107654;28;20444;-67
2023/10/21 10:30:19;;;;;;;2.43;0.80;;;15.80;99.00;;;;;;5106895;28;20426;-64
2023/10/21 10:32:47;;;;;;;1.30;0.50;;;16.00;98.50;;;;;;5108199;28;20432;-65
2023/10/21 10:35:37;;;;;;;1.40;0.50;;;16.30;99.10;;;;;;5106914;28;21471;-65
2023/10/21 10:38:17;;;;;;;1.40;0.50;;;16.60;96.90;;;;;;5087596;28;20542;-65
2023/10/21 10:40:44;;;;;;;5.03;0.70;;;16.50;96.20;;;;;;5106733;28;20507;-67
2023/10/21 10:43:17;;;;;;;1.83;0.60;;;16.40;96.60;;;;;;5106252;28;20448;-65
2023/10/21 10:45:43;;;;;;;1.50;0.57;;;16.20;96.50;;;;;;5107893;28;20431;-65
2023/10/21 10:48:09;;;;;;;5.10;0.70;;;16.00;96.30;;;;;;5106199;28;20421;-65
2023/10/21 10:50:39;;;;;;;1.20;0.50;;;16.00;96.50;;;;;;5105990;28;20216;-65
2023/10/21 10:53:33;;;;;;;3.93;0.50;;;15.80;96.00;;;;;;5106525;28;21039;-64
2023/10/21 10:55:59;;;;;;;3.50;0.57;;;15.70;96.10;;;;;;5104407;28;20528;-65
2023/10/21 10:58:28;;;;;;;1.77;0.60;;;15.60;96.00;;;;;;5104219;28;20928;-64
2023/10/21 11:00:54;;;;;;;1.30;0.50;;;15.50;96.50;;;;;;5108005;28;20227;-66
2023/10/21 11:03:27;;;;;;;1.30;0.50;;;15.60;95.90;;;;;;5107805;28;20797;-66
2023/10/21 11:05:57;;;;;;;4.13;0.83;;;15.70;96.00;;;;;;5107315;28;20524;-65
2023/10/21 11:08:24;;;;;;;2.70;0.53;;;15.90;96.50;;;;;;5104370;28;20448;-66
2023/10/21 11:10:53;;;;;;;7.43;0.50;;;16.30;95.90;;;;;;5100892;28;20441;-66
2023/10/21 11:13:20;;;;;;;4.00;0.60;;;16.60;95.30;;;;;;5103722;28;20529;-64
2023/10/21 11:15:48;;;;;;;1.20;0.40;;;16.30;95.10;;;;;;5105794;27;20453;-64
2023/10/21 11:18:15;;;;;;;1.50;0.70;;;16.10;95.80;;;;;;5110610;27;20444;-64
2023/10/21 11:20:53;;;;;;;2.33;0.77;;;15.80;96.10;;;;;;5110054;27;20475;-63
2023/10/21 11:23:23;;;;;;;1.20;0.50;;;15.50;96.30;;;;;;5108165;27;20452;-64
2023/10/21 11:25:53;;;;;;;1.97;0.60;;;15.60;95.90;;;;;;5110687;27;20430;-64
2023/10/21 11:28:19;;;;;;;8.33;0.90;;;15.60;96.10;;;;;;5110936;27;20437;-64
2023/10/21 11:30:46;;;;;;;1.70;0.50;;;15.50;95.90;;;;;;5110619;27;21781;-64
2023/10/21 11:33:12;;;;;;;1.40;0.60;;;15.50;96.60;;;;;;5109352;27;20444;-64
2023/10/21 11:35:40;;;;;;;1.40;0.60;;;15.30;96.30;;;;;;5109538;27;20952;-64
2023/10/21 11:38:06;;;;;;;1.20;0.50;;;15.40;96.90;;;;;;5102214;27;20474;-64
2023/10/21 11:40:34;;;;;;;2.57;1.00;;;15.40;96.20;;;;;;5108873;27;20468;-64
2023/10/21 11:43:01;;;;;;;1.40;0.50;;;15.40;97.30;;;;;;5109169;27;20972;-64
2023/10/21 11:45:30;;;;;;;2.57;0.63;;;15.50;96.70;;;;;;5108461;27;20600;-64
2023/10/21 11:47:58;;;;;;;1.50;0.73;;;15.60;96.20;;;;;;5109687;27;20422;-64
2023/10/21 11:50:24;;;;;;;1.50;0.40;;;15.60;96.30;;;;;;5109726;27;20432;-64
2023/10/21 11:52:51;;;;;;;1.20;0.50;;;15.60;96.60;;;;;;5107028;27;20516;-64
2023/10/21 12:25:53;;;;;;;3.93;0.83;;;16.40;96.10;;;;;;5108089;27;20771;-63
2023/10/21 12:33:08;;;;;;;;;;;;;;;;;;;;;
2023/10/21 12:40:32;;;;;;;3.63;0.50;;;15.40;96.10;;;;;;5107742;27;20448;-64
2023/10/21 12:45:45;;;;;;;1.23;0.50;;;15.60;96.00;;;;;;5108846;27;20436;-65
2023/10/21 12:48:17;;;;;;;2.80;1.20;;;15.60;96.00;;;;;;5108638;27;20484;-64
2023/10/21 12:50:43;;;;;;;2.90;0.80;;;15.60;96.40;;;;;;5107782;27;20431;-64
2023/10/21 12:53:10;;;;;;;1.40;0.50;;;15.80;95.90;;;;;;5106031;27;20433;-64
2023/10/21 12:55:38;;;;;;;1.90;0.70;;;15.80;95.90;;;;;;5108096;27;20437;-65
2023/10/21 12:58:05;;;;;;;1.30;0.60;;;16.00;95.50;;;;;;5107058;27;20434;-65
2023/10/21 13:00:31;;;;;;;1.30;0.50;;;16.10;95.40;;;;;;5099925;27;20497;-65
2023/10/21 13:02:57;;;;;;;1.47;0.70;;;16.20;95.70;;;;;;5106549;27;20441;-64
2023/10/21 13:05:23;;;;;;;1.30;0.50;;;16.20;96.00;;;;;;5108365;27;20434;-65
2023/10/21 13:07:52;;;;;;;1.20;0.50;;;16.30;95.90;;;;;;5107170;27;20433;-64
2023/10/21 13:10:18;;;;;;;1.40;0.50;;;16.40;96.00;;;;;;5088924;27;21742;-65
2023/10/21 13:12:44;;;;;;;2.17;0.60;;;16.50;95.90;;;;;;5107516;27;20428;-64
2023/10/21 13:15:11;;;;;;;1.80;0.80;;;16.60;95.20;;;;;;5107389;27;20180;-64
2023/10/21 13:17:38;;;;;;;2.07;0.77;;;16.80;95.50;;;;;;5103323;27;20467;-65
2023/10/21 13:20:05;;;;;;;1.77;0.50;;;16.80;94.80;;;;;;5105141;27;20230;-64
2023/10/21 13:22:32;;;;;;;3.70;0.60;;;16.80;94.30;;;;;;5107937;27;20441;-65
2023/10/21 13:24:58;;;;;;;1.73;0.60;;;16.80;93.90;;;;;;5105403;27;20463;-64
2023/10/21 13:27:24;;;;;;;1.40;0.53;;;16.70;94.60;;;;;;5097672;27;21713;-64
2023/10/21 13:29:49;;;;;;;1.90;0.70;;;16.80;94.90;;;;;;5108185;27;20974;-64